Time;durP1;ratioP1;P1;durP2;ratioP2;P2;SDS_P1;SDS_P2;PMS_P1;PMS_P2;Temp;Humidity;BMP_temperature;BMP_pressure;BME280_temperature;BME280_humidity;BME280_pressure;Samples;Min_cycle;Max_cycle;Signal;HPM_P1;HPM_P2
2022/08/23 00:02:19;;;;;;;23.73;15.95;;;;;;;;;;16896024;29;20264;-82
2022/08/23 00:10:39;;;;;;;21.45;16.08;;;;;;;;;;16894385;29;20665;-83
2022/08/23 00:19:00;;;;;;;21.60;16.80;;;;;;;;;;16894993;29;20180;-82
2022/08/23 00:27:20;;;;;;;23.02;15.93;;;;;;;;;;16893249;29;20193;-82
2022/08/23 00:35:40;;;;;;;21.55;16.40;;;;;;;;;;16894037;29;20174;-82
2022/08/23 00:52:49;;;;;;;18.25;14.20;;;;;;;;;;16893149;29;20208;-82
2022/08/23 01:01:09;;;;;;;17.48;14.90;;;;;;;;;;16893798;28;20236;-83
2022/08/23 01:09:31;;;;;;;21.20;14.70;;;;;;;;;;16892310;28;20201;-83
2022/08/23 01:17:55;;;;;;;19.83;13.90;;;;;;;;;;16894178;28;20679;-83
2022/08/23 01:26:17;;;;;;;17.75;13.32;;;;;;;;;;16892604;28;20244;-83
2022/08/23 01:34:37;;;;;;;19.55;12.52;;;;;;;;;;16891179;29;20190;-82
2022/08/23 01:42:58;;;;;;;15.07;12.80;;;;;;;;;;16890753;28;20344;-82
2022/08/23 01:51:19;;;;;;;15.80;12.77;;;;;;;;;;16891096;28;20564;-82
2022/08/23 01:59:41;;;;;;;16.75;12.88;;;;;;;;;;16890244;28;20697;-82
2022/08/23 02:08:59;;;;;;;16.67;13.52;;;;;;;;;;16890198;28;20205;-82
2022/08/23 02:16:45;;;;;;;16.38;12.50;;;;;;;;;;16891349;29;20190;-82
2022/08/23 02:25:06;;;;;;;14.32;12.10;;;;;;;;;;16887683;29;20185;-82
2022/08/23 02:33:27;;;;;;;16.77;12.75;;;;;;;;;;16888170;29;20204;-82
2022/08/23 02:41:48;;;;;;;15.00;12.07;;;;;;;;;;16886753;29;20225;-82
2022/08/23 02:50:09;;;;;;;16.48;12.57;;;;;;;;;;16888618;29;20213;-82
2022/08/23 02:58:29;;;;;;;14.15;12.50;;;;;;;;;;16887190;28;20239;-82
2022/08/23 03:06:49;;;;;;;13.97;12.20;;;;;;;;;;16886580;29;20263;-82
2022/08/23 03:15:10;;;;;;;16.40;12.07;;;;;;;;;;16886762;28;20181;-82
2022/08/23 03:23:31;;;;;;;15.10;12.73;;;;;;;;;;16885967;28;20629;-82
2022/08/23 03:31:51;;;;;;;15.83;12.13;;;;;;;;;;16885451;28;20684;-82
2022/08/23 03:40:12;;;;;;;13.67;11.80;;;;;;;;;;16884556;29;20200;-83
2022/08/23 03:48:33;;;;;;;14.37;11.33;;;;;;;;;;16884938;28;20561;-83
2022/08/23 03:56:55;;;;;;;12.10;10.15;;;;;;;;;;16885468;28;20248;-82
2022/08/23 04:05:15;;;;;;;11.68;9.82;;;;;;;;;;16886065;28;20288;-82
2022/08/23 04:13:36;;;;;;;10.63;9.52;;;;;;;;;;16890220;28;20641;-82
2022/08/23 04:21:56;;;;;;;9.93;9.02;;;;;;;;;;16896381;28;20190;-82
2022/08/23 04:30:18;;;;;;;11.82;8.25;;;;;;;;;;16893741;28;20256;-82
2022/08/23 04:38:39;;;;;;;14.27;8.77;;;;;;;;;;16893337;29;20676;-82
2022/08/23 04:46:59;;;;;;;12.30;8.75;;;;;;;;;;16893056;28;20208;-82
2022/08/23 04:55:19;;;;;;;11.80;9.25;;;;;;;;;;16895155;28;20233;-82
2022/08/23 05:03:40;;;;;;;12.13;9.35;;;;;;;;;;16893034;28;20169;-82
2022/08/23 05:12:00;;;;;;;12.38;9.18;;;;;;;;;;16895152;29;20586;-82
2022/08/23 05:20:21;;;;;;;14.82;10.48;;;;;;;;;;16896833;28;20173;-82
2022/08/23 05:28:43;;;;;;;12.77;10.75;;;;;;;;;;16894951;29;20703;-81
2022/08/23 05:37:04;;;;;;;16.27;11.18;;;;;;;;;;16897255;28;20185;-82
2022/08/23 05:45:24;;;;;;;15.35;11.77;;;;;;;;;;16898661;28;20563;-82
2022/08/23 05:53:45;;;;;;;17.95;12.32;;;;;;;;;;16892646;28;20295;-82
2022/08/23 06:02:05;;;;;;;18.55;13.02;;;;;;;;;;16909859;29;20177;-81
2022/08/23 06:10:26;;;;;;;20.50;13.35;;;;;;;;;;16897574;29;20641;-81
2022/08/23 06:18:46;;;;;;;16.23;14.55;;;;;;;;;;16937532;29;20245;-81
2022/08/23 06:27:07;;;;;;;16.27;13.82;;;;;;;;;;16947253;29;20289;-82
2022/08/23 06:35:28;;;;;;;19.25;13.93;;;;;;;;;;16898209;29;20169;-82
2022/08/23 06:43:49;;;;;;;22.45;14.52;;;;;;;;;;16889770;28;20635;-80
2022/08/23 06:52:11;;;;;;;15.30;13.82;;;;;;;;;;16907133;28;20212;-78
2022/08/23 07:00:31;;;;;;;17.17;13.55;;;;;;;;;;16917912;28;20240;-81
2022/08/23 07:08:52;;;;;;;18.48;13.63;;;;;;;;;;16912465;29;20292;-80
2022/08/23 07:17:13;;;;;;;19.60;14.25;;;;;;;;;;16913127;29;20272;-80
2022/08/23 07:25:33;;;;;;;17.73;14.15;;;;;;;;;;16903772;29;20209;-81
2022/08/23 07:33:54;;;;;;;17.90;14.10;;;;;;;;;;16890968;29;20216;-81
2022/08/23 07:42:14;;;;;;;17.40;13.82;;;;;;;;;;16922828;28;20568;-80
2022/08/23 07:50:35;;;;;;;16.02;14.27;;;;;;;;;;16906652;28;20213;-80
2022/08/23 07:58:55;;;;;;;23.70;14.63;;;;;;;;;;16904942;28;20248;-81
2022/08/23 08:07:16;;;;;;;20.17;14.25;;;;;;;;;;16912935;29;20213;-81
2022/08/23 08:15:39;;;;;;;15.77;13.05;;;;;;;;;;16906248;29;20497;-81
2022/08/23 08:24:00;;;;;;;16.38;13.80;;;;;;;;;;16894643;29;20238;-83
2022/08/23 08:32:20;;;;;;;17.08;13.07;;;;;;;;;;16895703;29;20205;-82
2022/08/23 08:40:41;;;;;;;15.90;12.75;;;;;;;;;;16901686;29;20288;-84
2022/08/23 08:49:03;;;;;;;18.83;11.80;;;;;;;;;;16899417;29;20219;-84
2022/08/23 08:57:24;;;;;;;16.33;12.70;;;;;;;;;;16899594;28;20324;-84
2022/08/23 09:05:55;;;;;;;19.15;12.98;;;;;;;;;;16897723;29;20201;-84
2022/08/23 09:14:15;;;;;;;16.90;12.75;;;;;;;;;;16895749;29;20220;-83
2022/08/23 09:22:43;;;;;;;16.52;11.88;;;;;;;;;;16896229;29;20177;-83
2022/08/23 09:31:04;;;;;;;17.85;13.15;;;;;;;;;;16899785;28;20683;-83
2022/08/23 09:39:27;;;;;;;14.63;11.40;;;;;;;;;;16907604;28;20205;-83
2022/08/23 09:47:48;;;;;;;16.70;12.07;;;;;;;;;;16893131;28;20307;-82
2022/08/23 09:56:14;;;;;;;18.17;10.70;;;;;;;;;;16898724;29;20240;-83
2022/08/23 10:04:34;;;;;;;16.92;11.32;;;;;;;;;;16895707;29;20196;-83
2022/08/23 10:12:55;;;;;;;17.27;10.77;;;;;;;;;;16897519;28;20657;-84
2022/08/23 10:21:19;;;;;;;22.77;10.85;;;;;;;;;;16908409;28;20219;-82
2022/08/23 10:29:47;;;;;;;24.63;11.85;;;;;;;;;;16905490;28;20209;-82
2022/08/23 10:38:11;;;;;;;20.05;11.18;;;;;;;;;;16891646;29;20200;-82
2022/08/23 10:46:33;;;;;;;28.25;12.45;;;;;;;;;;16899312;29;20200;-83
2022/08/23 10:54:59;;;;;;;27.25;12.98;;;;;;;;;;16893096;28;20708;-83
2022/08/23 11:03:24;;;;;;;18.65;11.85;;;;;;;;;;16886342;29;20268;-83
2022/08/23 11:11:45;;;;;;;34.08;12.80;;;;;;;;;;16888796;28;20212;-83
2022/08/23 11:20:09;;;;;;;29.80;11.93;;;;;;;;;;16893056;29;20173;-83
2022/08/23 11:28:37;;;;;;;30.42;11.30;;;;;;;;;;16894515;28;20236;-82
2022/08/23 11:37:16;;;;;;;30.17;10.38;;;;;;;;;;16904595;29;20632;-82
2022/08/23 11:45:39;;;;;;;38.35;10.70;;;;;;;;;;16902104;29;20232;-83
2022/08/23 11:54:18;;;;;;;35.85;10.15;;;;;;;;;;16893269;28;20237;-83
2022/08/23 12:02:51;;;;;;;33.17;9.90;;;;;;;;;;16891153;28;20189;-82
2022/08/23 12:11:12;;;;;;;36.35;10.10;;;;;;;;;;16912944;28;20268;-82
2022/08/23 12:19:34;;;;;;;31.67;11.52;;;;;;;;;;16964920;28;20198;-82
2022/08/23 12:27:58;;;;;;;28.75;9.43;;;;;;;;;;16916625;29;20212;-80
2022/08/23 12:36:21;;;;;;;36.47;10.60;;;;;;;;;;16897757;28;20181;-82
2022/08/23 12:44:43;;;;;;;39.95;10.70;;;;;;;;;;16897789;29;20247;-81
2022/08/23 12:53:08;;;;;;;30.52;9.98;;;;;;;;;;16895061;28;20314;-81
2022/08/23 13:01:33;;;;;;;30.98;10.38;;;;;;;;;;16895094;29;20192;-81
2022/08/23 13:09:55;;;;;;;37.28;10.20;;;;;;;;;;16895425;28;20205;-80
2022/08/23 13:18:22;;;;;;;36.58;10.68;;;;;;;;;;16897448;28;20184;-81
2022/08/23 13:26:43;;;;;;;46.15;10.35;;;;;;;;;;16895707;29;20213;-81
2022/08/23 13:35:22;;;;;;;48.58;10.88;;;;;;;;;;16896939;29;20660;-81
2022/08/23 13:43:43;;;;;;;36.80;9.43;;;;;;;;;;16892994;28;20678;-83
2022/08/23 13:52:07;;;;;;;33.25;9.93;;;;;;;;;;16888245;28;20206;-83
2022/08/23 14:00:27;;;;;;;34.25;9.77;;;;;;;;;;16887856;28;20279;-83
2022/08/23 14:08:47;;;;;;;31.02;11.38;;;;;;;;;;16888522;28;20262;-83
2022/08/23 14:17:08;;;;;;;37.45;10.07;;;;;;;;;;16887130;28;20711;-83
2022/08/23 14:25:28;;;;;;;31.55;10.27;;;;;;;;;;16889628;28;20169;-83
2022/08/23 14:33:49;;;;;;;37.40;10.95;;;;;;;;;;16889746;28;20178;-82
2022/08/23 14:42:10;;;;;;;35.80;10.00;;;;;;;;;;16891396;28;20201;-83
2022/08/23 14:50:30;;;;;;;36.05;12.02;;;;;;;;;;16884595;28;20216;-83
2022/08/23 14:58:50;;;;;;;33.33;11.02;;;;;;;;;;16884420;28;20237;-82
2022/08/23 15:07:11;;;;;;;34.05;10.50;;;;;;;;;;16894369;29;20208;-82
2022/08/23 15:15:31;;;;;;;35.03;9.55;;;;;;;;;;16888297;29;20668;-83
2022/08/23 15:23:51;;;;;;;35.47;9.68;;;;;;;;;;16886767;28;20660;-83
2022/08/23 15:32:12;;;;;;;37.00;11.98;;;;;;;;;;16893755;28;20599;-83
2022/08/23 15:40:32;;;;;;;42.63;12.10;;;;;;;;;;16885128;28;20201;-83
2022/08/23 15:49:01;;;;;;;31.05;10.80;;;;;;;;;;16886871;28;20249;-83
2022/08/23 15:57:23;;;;;;;21.33;10.13;;;;;;;;;;16883164;29;20327;-83
2022/08/23 16:05:45;;;;;;;30.67;9.68;;;;;;;;;;16885116;29;20213;-83
2022/08/23 16:14:05;;;;;;;15.55;7.70;;;;;;;;;;16896655;29;20641;-83
2022/08/23 16:22:26;;;;;;;27.98;8.57;;;;;;;;;;16895049;29;20189;-83
2022/08/23 16:30:47;;;;;;;29.40;10.30;;;;;;;;;;16895346;28;20213;-83
2022/08/23 16:39:07;;;;;;;22.63;10.60;;;;;;;;;;16897487;29;20205;-82
2022/08/23 16:47:29;;;;;;;18.95;11.05;;;;;;;;;;16892766;29;20272;-83
2022/08/23 16:55:50;;;;;;;25.88;11.18;;;;;;;;;;16893565;28;20323;-83
2022/08/23 17:04:11;;;;;;;27.08;11.90;;;;;;;;;;16892308;28;20174;-83
2022/08/23 17:12:32;;;;;;;23.30;10.30;;;;;;;;;;16892279;28;20236;-83
2022/08/23 17:20:53;;;;;;;24.83;11.23;;;;;;;;;;16887127;29;20174;-82
2022/08/23 17:29:13;;;;;;;21.90;9.65;;;;;;;;;;16895180;29;20213;-83
2022/08/23 17:37:34;;;;;;;18.33;8.27;;;;;;;;;;16889558;28;20243;-83
2022/08/23 17:45:55;;;;;;;20.60;7.90;;;;;;;;;;16890617;28;20257;-82
2022/08/23 17:54:17;;;;;;;16.15;7.85;;;;;;;;;;16891228;28;20237;-82
2022/08/23 18:02:37;;;;;;;17.63;8.38;;;;;;;;;;16888590;28;20273;-82
2022/08/23 18:10:58;;;;;;;22.10;7.97;;;;;;;;;;16886422;28;20255;-82
2022/08/23 18:19:18;;;;;;;19.77;8.73;;;;;;;;;;16889606;28;20260;-81
2022/08/23 18:36:17;;;;;;;22.52;10.68;;;;;;;;;;16890919;29;20220;-80
2022/08/23 18:44:37;;;;;;;27.23;11.07;;;;;;;;;;16893389;29;20193;-81
2022/08/23 18:52:58;;;;;;;20.45;10.30;;;;;;;;;;16908476;28;20217;-81
2022/08/23 19:01:19;;;;;;;22.25;9.15;;;;;;;;;;16947780;28;20243;-81
2022/08/23 19:09:41;;;;;;;21.13;10.40;;;;;;;;;;16950021;28;20239;-81
2022/08/23 19:18:01;;;;;;;28.65;10.27;;;;;;;;;;16886556;29;20174;-81
2022/08/23 19:26:24;;;;;;;21.23;9.52;;;;;;;;;;16883483;29;20205;-81
2022/08/23 19:34:45;;;;;;;25.17;10.10;;;;;;;;;;16880113;29;20188;-81
2022/08/23 19:43:05;;;;;;;23.83;10.00;;;;;;;;;;16886661;29;20212;-81
2022/08/23 19:51:27;;;;;;;19.35;10.57;;;;;;;;;;16895981;29;20205;-81
2022/08/23 19:59:47;;;;;;;19.33;9.98;;;;;;;;;;16898016;28;20225;-80
2022/08/23 20:08:08;;;;;;;22.65;10.57;;;;;;;;;;16897650;28;20214;-80
2022/08/23 20:16:31;;;;;;;21.83;9.57;;;;;;;;;;16894538;28;20224;-80
2022/08/23 20:24:51;;;;;;;23.75;9.90;;;;;;;;;;16899458;28;20234;-80
2022/08/23 20:33:11;;;;;;;18.17;10.38;;;;;;;;;;16895895;29;20346;-81
2022/08/23 20:41:33;;;;;;;18.63;9.30;;;;;;;;;;16894283;29;20197;-81
2022/08/23 20:49:53;;;;;;;22.38;10.73;;;;;;;;;;16893443;29;20204;-80
2022/08/23 20:58:14;;;;;;;20.58;10.75;;;;;;;;;;16892757;28;20233;-80
2022/08/23 21:06:43;;;;;;;26.38;11.50;;;;;;;;;;16889817;28;20209;-81
2022/08/23 21:15:03;;;;;;;18.42;10.85;;;;;;;;;;16892793;29;20172;-81
2022/08/23 21:23:24;;;;;;;21.60;11.43;;;;;;;;;;16892830;29;20173;-81
2022/08/23 21:31:44;;;;;;;22.70;11.60;;;;;;;;;;16891780;28;20249;-81
2022/08/23 21:40:05;;;;;;;22.52;10.93;;;;;;;;;;16891351;28;20726;-81
2022/08/23 21:48:25;;;;;;;20.65;10.70;;;;;;;;;;16890240;29;20217;-81
2022/08/23 21:56:46;;;;;;;25.27;11.63;;;;;;;;;;16890224;28;20239;-81
2022/08/23 22:05:06;;;;;;;21.38;10.48;;;;;;;;;;16889213;29;20178;-81
2022/08/23 22:13:27;;;;;;;19.92;10.93;;;;;;;;;;16889041;29;20296;-81
2022/08/23 22:21:48;;;;;;;21.90;12.00;;;;;;;;;;16888633;29;20618;-81
2022/08/23 22:30:08;;;;;;;23.75;10.40;;;;;;;;;;16888109;29;20216;-81
2022/08/23 22:38:29;;;;;;;25.08;10.48;;;;;;;;;;16885403;28;20263;-81
2022/08/23 22:46:49;;;;;;;21.98;11.50;;;;;;;;;;16886433;28;20256;-81
2022/08/23 22:55:10;;;;;;;21.10;10.10;;;;;;;;;;16885261;28;20239;-81
2022/08/23 23:03:30;;;;;;;22.85;11.18;;;;;;;;;;16885373;29;20189;-81
2022/08/23 23:11:50;;;;;;;18.00;9.88;;;;;;;;;;16885074;28;20232;-81
2022/08/23 23:28:50;;;;;;;19.15;10.27;;;;;;;;;;16885925;29;20232;-81
2022/08/23 23:37:11;;;;;;;19.45;10.40;;;;;;;;;;16885733;28;20185;-81
2022/08/23 23:45:31;;;;;;;19.55;9.75;;;;;;;;;;16884244;28;20212;-81
2022/08/23 23:53:52;;;;;;;21.55;10.55;;;;;;;;;;16884880;28;20232;-81
